Terminal Aerodrome Forecast
Issued by NWS Melbourne, FL

Home | Current Version | Previous Version | Text Only | Print | Product List | Glossary On
Versions: 1 2 3 4 5 6 7 8 9 10 11 12 13
420
FTUS42 KMLB 061728
TAFMLB
TAF
KMLB 061728Z 0618/0718 21017G24KT P6SM VCSH SCT028 BKN035 BKN050
      TEMPO 0619/0622 3SM TSRA BKN020CB
     FM062200 24015G23KT P6SM VCSH BKN050
     FM070000 25006KT P6SM SCT010 BKN040
     FM070900 33004KT 5SM BR BKN020
     FM071500 29006KT P6SM FEW020 SCT250=

USA.gov is the U.S. government's official web portal to all federal, state and local government web resources and services.